Point Edward, Canada
Current Conditions -  °F | °C
As of 1:00 AM on Sunday 26 Oct 2014 (Local Time) from CYZR Reporting Station
NA  
Wind Chill: 52°   Ceiling: NA
Heat Index: 52°   Visibility: NA
Dew Point: 36°   Wind: 10mph
Humidity: 54%   Direction: 310°NW
Pressure: 29.77"   Gusts: NA
Location:  43°N, 82.41°W
Report Text: CYZR 260500Z AUTO 31009KT 11/02 A2977 RMK CLD MISG WX MISG VIS MISG ICG MISG SLP081
Loading
Personal Weather Stations






























Interactive Weather Map
Tropical Storm Tracking
New forecast layout! Learn more

10-Day Weather Forecast

Advertisements
Track Severe Weather on mobile